Time;durP1;ratioP1;P1;durP2;ratioP2;P2;SDS_P1;SDS_P2;PMS_P1;PMS_P2;Temp;Humidity;BMP_temperature;BMP_pressure;BME280_temperature;BME280_humidity;BME280_pressure;Samples;Min_cycle;Max_cycle;Signal;HPM_P1;HPM_P2
2023/06/13 00:01:24;;;;;;;8.23;4.47;;;;;;;23.65;32.09;101269.00;5033093;28;20029;-63
2023/06/13 00:03:53;;;;;;;11.15;4.88;;;;;;;23.65;32.31;101271.72;5033333;28;20108;-63
2023/06/13 00:06:19;;;;;;;9.80;4.68;;;;;;;23.62;33.40;101266.38;5033281;28;20026;-63
2023/06/13 00:08:44;;;;;;;7.30;4.20;;;;;;;23.57;32.30;101262.09;5033256;28;20112;-63
2023/06/13 00:11:10;;;;;;;6.45;4.50;;;;;;;23.48;32.33;101269.59;5032842;28;20475;-63
2023/06/13 00:13:36;;;;;;;9.40;4.32;;;;;;;23.40;32.95;101273.50;5032861;28;20025;-63
2023/06/13 00:16:02;;;;;;;11.77;4.88;;;;;;;23.35;32.62;101265.56;5032961;28;20037;-63
2023/06/13 00:18:31;;;;;;;10.95;4.60;;;;;;;23.34;33.16;101268.31;5032974;28;20068;-63
2023/06/13 00:20:58;;;;;;;7.95;4.47;;;;;;;23.23;33.18;101266.88;5033059;28;20099;-63
2023/06/13 00:23:25;;;;;;;7.72;4.60;;;;;;;23.23;32.90;101266.00;5033145;28;20084;-63
2023/06/13 00:25:51;;;;;;;7.28;4.50;;;;;;;23.22;34.17;101266.94;5032816;28;20499;-63
2023/06/13 00:28:17;;;;;;;9.77;4.38;;;;;;;23.01;33.86;101259.59;5033100;28;20048;-63
2023/06/13 00:30:43;;;;;;;8.00;4.40;;;;;;;22.97;33.67;101264.22;5032853;28;20430;-63
2023/06/13 00:33:10;;;;;;;6.32;4.28;;;;;;;22.92;33.99;101267.06;5033741;28;20498;-63
2023/06/13 00:35:35;;;;;;;6.38;4.50;;;;;;;22.89;34.11;101267.13;5036765;28;20481;-63
2023/06/13 00:38:02;;;;;;;7.63;4.35;;;;;;;22.84;34.42;101261.00;5036789;28;20059;-63
2023/06/13 00:40:27;;;;;;;12.02;4.35;;;;;;;22.83;34.42;101255.69;5036598;28;20022;-63
2023/06/13 00:42:53;;;;;;;6.30;4.40;;;;;;;22.77;34.27;101266.66;5018871;28;20042;-63
2023/06/13 00:45:19;;;;;;;7.65;4.38;;;;;;;22.72;33.93;101266.81;5036962;28;20022;-63
2023/06/13 00:47:47;;;;;;;6.55;4.70;;;;;;;22.62;34.63;101270.75;5037007;28;20037;-63
2023/06/13 00:50:15;;;;;;;10.05;4.60;;;;;;;22.58;34.72;101256.50;5036714;28;20048;-63
2023/06/13 00:52:40;;;;;;;7.20;4.60;;;;;;;22.56;34.59;101254.75;5036406;28;20398;-63
2023/06/13 00:55:07;;;;;;;8.23;4.93;;;;;;;22.46;34.75;101256.88;5036344;28;20040;-63
2023/06/13 00:57:33;;;;;;;9.85;4.68;;;;;;;22.46;35.16;101256.88;5019256;28;20108;-64
2023/06/13 01:00:00;;;;;;;7.97;4.65;;;;;;;22.42;35.05;101257.91;5036340;28;20040;-64
2023/06/13 01:02:27;;;;;;;9.07;4.45;;;;;;;22.40;34.99;101249.00;5036686;28;20038;-64
2023/06/13 01:04:53;;;;;;;6.32;4.53;;;;;;;22.32;35.60;101248.38;5019301;28;20053;-63
2023/06/13 01:07:19;;;;;;;7.97;4.70;;;;;;;22.27;35.92;101259.28;5036612;28;20115;-64
2023/06/13 01:09:45;;;;;;;10.15;4.90;;;;;;;22.19;35.59;101245.19;5036540;28;20033;-63
2023/06/13 01:12:43;;;;;;;9.13;4.40;;;;;;;22.23;35.93;101241.47;5036277;28;20036;-64
2023/06/13 01:15:13;;;;;;;9.27;5.07;;;;;;;22.09;36.00;101241.81;5036062;28;20029;-63
2023/06/13 01:17:49;;;;;;;6.90;4.80;;;;;;;22.10;35.64;101248.09;5036236;28;20442;-63
2023/06/13 01:20:18;;;;;;;7.50;4.97;;;;;;;22.05;35.95;101252.75;5036112;28;20368;-63
2023/06/13 01:23:15;;;;;;;9.68;4.70;;;;;;;21.99;36.06;101245.75;5036005;28;20099;-63
2023/06/13 01:25:52;;;;;;;8.43;4.95;;;;;;;21.96;35.89;101244.00;5035932;28;20025;-63
2023/06/13 01:28:20;;;;;;;6.80;4.80;;;;;;;21.89;36.28;101253.22;5036125;28;20033;-63
2023/06/13 01:30:47;;;;;;;7.25;5.03;;;;;;;21.87;36.44;101246.09;5035909;28;20061;-63
2023/06/13 01:33:14;;;;;;;7.53;4.75;;;;;;;21.79;36.31;101243.63;5035867;28;20033;-63
2023/06/13 01:35:39;;;;;;;8.25;5.05;;;;;;;21.77;37.01;101250.00;5035844;28;20479;-63
2023/06/13 01:38:05;;;;;;;9.20;4.78;;;;;;;21.79;36.69;101245.44;5035780;28;20116;-63
2023/06/13 01:40:31;;;;;;;8.23;4.50;;;;;;;21.75;37.40;101248.25;5035836;28;20053;-63
2023/06/13 01:42:56;;;;;;;6.85;4.68;;;;;;;21.78;36.73;101251.75;5035846;28;20029;-63
2023/06/13 01:45:23;;;;;;;9.48;4.68;;;;;;;21.72;37.15;101251.00;5035182;28;20105;-63
2023/06/13 01:48:11;;;;;;;8.15;5.13;;;;;;;21.69;36.69;101251.09;5035660;28;20418;-63
2023/06/13 01:50:42;;;;;;;10.40;5.38;;;;;;;21.63;36.98;101253.97;5035581;28;20079;-63
2023/06/13 01:53:14;;;;;;;10.18;5.28;;;;;;;21.52;37.24;101245.31;5035540;28;20033;-63
2023/06/13 01:55:47;;;;;;;8.10;5.10;;;;;;;21.45;37.19;101239.22;5035450;28;20031;-63
2023/06/13 01:58:19;;;;;;;10.45;4.97;;;;;;;21.37;38.03;101235.88;5035420;28;20040;-63
2023/06/13 02:00:46;;;;;;;7.28;4.93;;;;;;;21.38;38.27;101234.97;5035327;28;20021;-63
2023/06/13 02:03:13;;;;;;;8.50;5.20;;;;;;;21.33;38.40;101233.34;5035592;28;20036;-63
2023/06/13 02:05:38;;;;;;;8.18;4.93;;;;;;;21.29;38.99;101240.56;5035357;28;20022;-63
2023/06/13 02:08:04;;;;;;;10.15;5.53;;;;;;;21.23;38.31;101240.69;5035161;28;20021;-63
2023/06/13 02:10:29;;;;;;;11.50;5.20;;;;;;;21.25;38.48;101236.19;5035316;28;20053;-63
2023/06/13 02:12:54;;;;;;;7.30;5.57;;;;;;;21.21;38.41;101231.81;5035160;28;20044;-63
2023/06/13 02:15:20;;;;;;;9.13;4.90;;;;;;;21.16;38.68;101240.00;5035327;28;20089;-63
2023/06/13 02:17:46;;;;;;;12.80;5.38;;;;;;;21.15;38.48;101243.59;5017648;28;20534;-63
2023/06/13 02:20:12;;;;;;;7.57;5.30;;;;;;;21.13;38.44;101240.06;5017262;28;20025;-63
2023/06/13 02:22:37;;;;;;;11.98;5.32;;;;;;;21.08;38.62;101238.44;5034876;28;20474;-63
2023/06/13 02:25:04;;;;;;;14.43;5.60;;;;;;;20.99;38.82;101237.75;5034838;28;20041;-63
2023/06/13 02:27:30;;;;;;;9.38;5.30;;;;;;;20.93;38.91;101231.66;5035154;28;20029;-64
2023/06/13 02:29:55;;;;;;;8.82;5.45;;;;;;;20.88;38.98;101231.78;5034842;28;20505;-62
2023/06/13 02:32:22;;;;;;;10.35;5.55;;;;;;;20.87;39.24;101231.81;5034741;28;20037;-63
2023/06/13 02:34:49;;;;;;;10.40;5.55;;;;;;;20.86;39.15;101239.00;5034975;28;20238;-63
2023/06/13 02:37:14;;;;;;;11.55;5.35;;;;;;;20.82;39.57;101236.44;5034903;28;20028;-62
2023/06/13 02:39:40;;;;;;;13.38;5.45;;;;;;;20.79;39.36;101244.56;5034472;28;20037;-63
2023/06/13 02:42:06;;;;;;;10.13;5.22;;;;;;;20.68;39.99;101236.75;5034574;28;20112;-63
2023/06/13 02:44:31;;;;;;;9.43;5.15;;;;;;;20.69;39.84;101244.81;5016757;28;20033;-63
2023/06/13 02:46:57;;;;;;;9.55;5.53;;;;;;;20.67;39.69;101248.44;5034597;28;20025;-63
2023/06/13 02:49:22;;;;;;;12.43;5.43;;;;;;;20.60;40.05;101244.13;5034466;28;20470;-63
2023/06/13 02:51:47;;;;;;;8.00;5.50;;;;;;;20.61;39.89;101240.53;5034180;28;20049;-63
2023/06/13 02:54:13;;;;;;;9.00;5.30;;;;;;;20.65;40.34;101244.91;5034518;28;20386;-63
2023/06/13 02:56:38;;;;;;;10.93;5.60;;;;;;;20.47;40.01;101247.09;5033717;28;20044;-63
2023/06/13 02:59:04;;;;;;;8.25;5.63;;;;;;;20.41;40.47;101243.66;5034171;28;20566;-63
2023/06/13 03:01:30;;;;;;;8.48;5.72;;;;;;;20.37;40.35;101240.16;5034280;28;20055;-63
2023/06/13 03:03:55;;;;;;;10.13;5.93;;;;;;;20.36;40.55;101243.75;5034151;28;20049;-63
2023/06/13 03:06:20;;;;;;;7.07;5.30;;;;;;;20.41;41.00;101236.47;5034243;28;20029;-63
2023/06/13 03:08:48;;;;;;;8.35;5.90;;;;;;;20.42;40.34;101240.03;5033998;28;20025;-63
2023/06/13 03:11:13;;;;;;;11.95;5.72;;;;;;;20.37;40.61;101239.28;5033931;28;20033;-63
2023/06/13 03:13:39;;;;;;;15.15;6.45;;;;;;;20.32;40.69;101244.75;5034038;28;20037;-63
2023/06/13 03:16:06;;;;;;;16.90;6.03;;;;;;;20.25;41.08;101243.13;5033876;28;20384;-63
2023/06/13 03:18:32;;;;;;;10.38;6.13;;;;;;;20.21;41.36;101236.06;5016393;28;20033;-63
2023/06/13 03:20:57;;;;;;;11.77;6.28;;;;;;;20.14;41.60;101245.19;5033765;28;20036;-63
2023/06/13 03:23:23;;;;;;;9.75;5.95;;;;;;;20.15;41.57;101244.25;5033429;28;20029;-63
2023/06/13 03:25:49;;;;;;;9.52;5.90;;;;;;;20.18;41.79;101241.50;5033497;28;20036;-63
2023/06/13 03:28:15;;;;;;;13.77;6.38;;;;;;;20.15;41.50;101244.25;5033343;28;20040;-63
2023/06/13 03:30:40;;;;;;;9.93;5.90;;;;;;;20.10;41.77;101238.13;5033264;28;20025;-63
2023/06/13 03:33:05;;;;;;;9.15;6.20;;;;;;;20.10;42.04;101236.31;5033333;28;20447;-63
2023/06/13 03:35:31;;;;;;;11.55;6.18;;;;;;;20.11;41.86;101234.50;5033411;28;20029;-63
2023/06/13 03:37:56;;;;;;;9.45;5.75;;;;;;;20.07;42.13;101233.69;5033149;28;20051;-63
2023/06/13 03:40:22;;;;;;;13.48;6.22;;;;;;;20.11;42.44;101232.72;5032945;28;20097;-64
2023/06/13 03:42:47;;;;;;;11.60;6.45;;;;;;;20.05;42.22;101231.97;5032870;28;20120;-63
2023/06/13 03:45:15;;;;;;;7.95;5.82;;;;;;;20.07;42.40;101239.06;5033115;28;20430;-63
2023/06/13 03:47:41;;;;;;;14.43;6.20;;;;;;;19.97;42.16;101229.47;5033184;28;20029;-63
2023/06/13 03:50:07;;;;;;;11.95;5.90;;;;;;;20.03;42.84;101234.66;5033139;28;20498;-63
2023/06/13 03:52:32;;;;;;;12.13;6.20;;;;;;;19.96;42.35;101227.69;5032680;28;20077;-63
2023/06/13 03:54:58;;;;;;;10.15;5.88;;;;;;;20.05;41.87;101229.28;5032818;28;20048;-63
2023/06/13 03:57:23;;;;;;;10.45;6.55;;;;;;;20.07;42.44;101230.13;5032787;28;20017;-63
2023/06/13 03:59:48;;;;;;;11.90;6.15;;;;;;;20.12;42.29;101236.25;5032876;28;20029;-63
2023/06/13 04:02:14;;;;;;;13.77;6.75;;;;;;;19.96;42.35;101233.06;5032614;28;20052;-63
2023/06/13 04:04:45;;;;;;;12.63;6.35;;;;;;;20.08;43.25;101231.88;5033013;28;20105;-63
2023/06/13 04:07:11;;;;;;;9.65;6.10;;;;;;;20.10;42.65;101230.94;5032644;28;20037;-63
2023/06/13 04:09:37;;;;;;;11.52;5.93;;;;;;;20.05;42.38;101237.34;5032627;28;20025;-63
2023/06/13 04:12:02;;;;;;;10.82;6.07;;;;;;;20.04;42.37;101235.56;5032992;28;20121;-63
2023/06/13 04:14:28;;;;;;;10.40;6.30;;;;;;;20.12;42.54;101239.81;5032680;28;20470;-63
2023/06/13 04:16:54;;;;;;;12.13;6.80;;;;;;;20.00;42.31;101238.31;5015369;28;20034;-63
2023/06/13 04:19:19;;;;;;;14.57;5.97;;;;;;;20.00;42.86;101235.66;5032600;28;20470;-64
2023/06/13 04:21:46;;;;;;;13.93;5.82;;;;;;;20.01;42.67;101242.78;5032650;28;20022;-63
2023/06/13 04:24:14;;;;;;;11.45;6.30;;;;;;;19.96;42.95;101246.47;5032507;28;20433;-63
2023/06/13 04:26:41;;;;;;;11.40;6.90;;;;;;;19.98;42.89;101245.50;5032523;28;20022;-63
2023/06/13 04:29:08;;;;;;;12.70;6.53;;;;;;;20.05;43.24;101248.06;5032590;28;20045;-63
2023/06/13 04:31:36;;;;;;;13.63;6.25;;;;;;;20.04;43.02;101246.28;5032527;28;20037;-63
2023/06/13 04:34:05;;;;;;;13.57;6.30;;;;;;;20.10;42.97;101247.03;5032732;28;20034;-63
2023/06/13 04:36:33;;;;;;;10.18;6.53;;;;;;;20.04;43.62;101260.56;5032537;28;20025;-63
2023/06/13 04:39:05;;;;;;;11.50;6.38;;;;;;;19.97;44.59;101259.84;5032611;28;20029;-64
2023/06/13 04:41:34;;;;;;;9.73;6.57;;;;;;;19.98;44.00;101258.03;5032637;28;20055;-63
2023/06/13 04:44:05;;;;;;;11.02;6.00;;;;;;;20.08;43.76;101262.28;5032243;28;20026;-63
2023/06/13 04:46:31;;;;;;;16.05;6.90;;;;;;;20.04;43.84;101259.69;5032518;28;20079;-63
2023/06/13 04:48:57;;;;;;;10.10;6.80;;;;;;;20.04;43.69;101257.91;5032473;28;20040;-63
2023/06/13 04:51:25;;;;;;;9.57;6.50;;;;;;;20.03;43.80;101266.88;5032118;28;20054;-63
2023/06/13 04:53:52;;;;;;;10.82;7.20;;;;;;;20.07;43.45;101259.63;5032458;28;20029;-63
2023/06/13 04:56:17;;;;;;;12.70;6.95;;;;;;;20.12;43.42;101258.63;5032092;28;20032;-63
2023/06/13 04:58:43;;;;;;;13.13;6.30;;;;;;;20.17;43.50;101262.09;5032265;28;20025;-63
2023/06/13 05:01:10;;;;;;;10.43;6.75;;;;;;;20.37;43.83;101263.44;5032083;28;20083;-64
2023/06/13 05:03:37;;;;;;;12.10;6.80;;;;;;;20.42;43.28;101261.53;5032345;28;20041;-63
2023/06/13 05:06:03;;;;;;;8.55;7.00;;;;;;;20.39;43.28;101262.50;5032083;28;20113;-63
2023/06/13 05:08:30;;;;;;;12.55;6.70;;;;;;;20.56;42.75;101274.69;5032255;28;20065;-64
2023/06/13 05:10:56;;;;;;;10.82;6.60;;;;;;;20.71;42.86;101285.03;5032386;28;20128;-63
2023/06/13 05:13:22;;;;;;;11.27;6.45;;;;;;;20.77;41.82;101276.84;5031910;28;20025;-64
2023/06/13 05:15:47;;;;;;;16.98;6.15;;;;;;;20.90;41.89;101280.13;5032216;28;20032;-63
2023/06/13 05:18:13;;;;;;;11.68;6.53;;;;;;;20.97;41.65;101282.56;5032111;28;20387;-63
2023/06/13 05:20:41;;;;;;;9.95;6.63;;;;;;;20.96;42.20;101283.50;5035337;28;20087;-63
2023/06/13 05:23:07;;;;;;;12.65;6.95;;;;;;;21.00;41.72;101281.63;5035523;28;20061;-63
2023/06/13 05:25:32;;;;;;;10.95;6.50;;;;;;;21.17;41.71;101276.69;5035610;28;20049;-63
2023/06/13 05:27:58;;;;;;;15.45;6.43;;;;;;;21.31;41.05;101283.50;5035783;28;20044;-63
2023/06/13 05:30:24;;;;;;;17.05;7.00;;;;;;;21.42;40.80;101289.53;5035603;28;20029;-61
2023/06/13 05:32:50;;;;;;;10.90;6.80;;;;;;;21.50;40.65;101277.63;5035305;28;20462;-63
2023/06/13 05:35:15;;;;;;;12.65;6.47;;;;;;;21.66;40.37;101279.88;5035325;28;20108;-62
2023/06/13 05:37:41;;;;;;;13.40;7.88;;;;;;;21.74;40.06;101285.94;5035636;28;20063;-63
2023/06/13 05:40:07;;;;;;;9.50;6.45;;;;;;;21.81;40.19;101266.00;5017207;28;20039;-62
2023/06/13 05:42:34;;;;;;;10.23;7.03;;;;;;;21.94;40.06;101271.91;5035305;28;20068;-62
2023/06/13 05:45:05;;;;;;;15.02;7.30;;;;;;;21.94;39.81;101285.38;5034913;28;20048;-62
2023/06/13 05:47:30;;;;;;;10.32;6.80;;;;;;;21.98;40.05;101274.47;5035217;28;20029;-63
2023/06/13 05:49:57;;;;;;;13.32;7.10;;;;;;;22.02;39.22;101285.16;5034979;28;20033;-62
2023/06/13 05:52:22;;;;;;;18.55;6.53;;;;;;;22.29;39.81;101278.06;5034878;28;20049;-62
2023/06/13 05:54:47;;;;;;;13.00;7.00;;;;;;;22.41;39.17;101280.38;5034892;28;20036;-65
2023/06/13 05:57:13;;;;;;;13.60;6.43;;;;;;;22.59;39.03;101277.09;5034954;28;20029;-62
2023/06/13 05:59:38;;;;;;;13.15;6.20;;;;;;;22.81;38.39;101284.47;5034970;28;20120;-63
2023/06/13 06:02:04;;;;;;;13.85;7.05;;;;;;;22.83;37.95;101282.63;5034864;28;20025;-63
2023/06/13 06:04:30;;;;;;;14.77;7.20;;;;;;;22.86;37.86;101288.78;5034963;28;20471;-63
2023/06/13 06:06:55;;;;;;;11.07;6.93;;;;;;;22.94;38.03;101284.03;5034723;28;20468;-63
2023/06/13 06:09:21;;;;;;;11.95;6.95;;;;;;;23.02;37.24;101291.00;5035027;28;20022;-64
2023/06/13 06:11:46;;;;;;;10.68;7.38;;;;;;;23.12;37.37;101287.94;5034951;28;20037;-63
2023/06/13 06:14:11;;;;;;;9.95;6.75;;;;;;;23.26;37.27;101289.28;5034893;28;20467;-63
2023/06/13 06:16:37;;;;;;;9.60;6.63;;;;;;;23.36;36.42;101294.28;5034924;28;20528;-62
2023/06/13 06:19:02;;;;;;;14.55;6.93;;;;;;;23.40;36.34;101293.25;5034562;28;20029;-62
2023/06/13 06:21:28;;;;;;;12.88;7.75;;;;;;;23.37;36.53;101289.78;5034460;28;20028;-62
2023/06/13 06:23:54;;;;;;;11.35;6.95;;;;;;;23.48;36.42;101295.69;5034741;28;20116;-62
2023/06/13 06:26:20;;;;;;;13.13;6.88;;;;;;;23.59;36.15;101285.38;5034541;28;20489;-62
2023/06/13 06:28:46;;;;;;;11.07;6.70;;;;;;;23.73;35.78;101287.63;5034228;28;20036;-62
2023/06/13 06:31:12;;;;;;;10.93;6.55;;;;;;;23.83;35.72;101285.44;5034575;28;20049;-63
2023/06/13 06:33:38;;;;;;;11.88;6.70;;;;;;;24.00;35.72;101280.28;5034191;28;20033;-63
2023/06/13 06:36:03;;;;;;;16.10;7.05;;;;;;;24.18;35.29;101281.41;5034674;28;20025;-63
2023/06/13 06:38:29;;;;;;;15.50;7.30;;;;;;;24.24;35.52;101289.28;5034433;28;20415;-63
2023/06/13 06:40:54;;;;;;;9.82;6.63;;;;;;;24.45;35.48;101285.78;5034400;28;20497;-63
2023/06/13 06:43:19;;;;;;;8.75;6.35;;;;;;;24.44;35.34;101277.72;5034405;28;20529;-63
2023/06/13 06:45:45;;;;;;;13.38;7.47;;;;;;;24.69;35.11;101283.00;5034405;28;20030;-63
2023/06/13 06:48:10;;;;;;;15.65;7.35;;;;;;;24.84;35.10;101293.19;5034392;28;20032;-63
2023/06/13 06:50:36;;;;;;;9.60;6.65;;;;;;;24.90;34.31;101290.22;5033929;28;20033;-63
2023/06/13 06:53:02;;;;;;;14.85;6.57;;;;;;;25.07;34.52;101284.09;5033874;28;20091;-63
2023/06/13 06:55:27;;;;;;;14.73;7.18;;;;;;;25.16;34.21;101289.16;5033831;28;20116;-62
2023/06/13 06:57:53;;;;;;;10.95;6.90;;;;;;;25.30;34.41;101277.72;5034024;28;20068;-63
2023/06/13 07:00:20;;;;;;;12.45;6.68;;;;;;;25.50;34.12;101284.97;5033933;28;20061;-63
2023/06/13 07:02:45;;;;;;;11.32;6.55;;;;;;;25.61;32.81;101285.38;5033710;28;20038;-63
2023/06/13 07:05:11;;;;;;;15.60;6.85;;;;;;;25.82;32.73;101286.25;5033617;28;20038;-62
2023/06/13 07:07:36;;;;;;;8.93;6.60;;;;;;;25.95;32.79;101283.84;5033478;28;20076;-62
2023/06/13 07:10:03;;;;;;;8.82;6.50;;;;;;;26.11;32.70;101286.72;5033435;28;20137;-62
2023/06/13 07:12:28;;;;;;;15.00;6.65;;;;;;;26.18;33.31;101289.09;5033388;28;20037;-62
2023/06/13 07:14:54;;;;;;;9.13;6.38;;;;;;;26.47;32.75;101289.56;5033321;28;20032;-62
2023/06/13 07:17:19;;;;;;;11.57;6.20;;;;;;;26.59;32.39;101288.06;5033518;28;20424;-62
2023/06/13 07:19:45;;;;;;;10.00;6.72;;;;;;;26.62;32.27;101293.34;5033512;28;20482;-63
2023/06/13 07:22:10;;;;;;;10.60;6.03;;;;;;;26.61;31.51;101292.47;5033120;28;20553;-63
2023/06/13 07:24:36;;;;;;;12.55;6.25;;;;;;;26.79;31.16;101298.81;5033650;28;20068;-63
2023/06/13 07:27:01;;;;;;;8.93;5.88;;;;;;;26.92;31.06;101294.53;5033122;28;20037;-63
2023/06/13 07:29:26;;;;;;;11.05;6.63;;;;;;;26.92;30.28;101291.81;5033566;28;20029;-63
2023/06/13 07:31:52;;;;;;;11.38;6.30;;;;;;;27.12;30.82;101304.41;5033189;28;20029;-63
2023/06/13 07:34:17;;;;;;;12.77;6.60;;;;;;;27.06;29.79;101298.38;5033112;28;20036;-63
2023/06/13 07:36:43;;;;;;;10.25;5.97;;;;;;;27.03;30.55;101301.28;5033384;28;20367;-63
2023/06/13 07:39:11;;;;;;;12.02;6.25;;;;;;;27.08;30.70;101296.47;5033267;28;20446;-63
2023/06/13 07:41:37;;;;;;;11.27;6.28;;;;;;;27.19;31.05;101297.72;5032692;28;20048;-63
2023/06/13 07:44:03;;;;;;;10.82;6.50;;;;;;;27.37;30.65;101297.72;5032534;28;20387;-63
2023/06/13 07:46:28;;;;;;;10.02;6.00;;;;;;;27.55;31.15;101306.75;5032950;28;20029;-64
2023/06/13 07:48:54;;;;;;;16.40;6.32;;;;;;;27.78;30.15;101292.81;5032699;28;20087;-64
2023/06/13 07:51:19;;;;;;;10.35;6.00;;;;;;;28.04;29.67;101283.25;5032531;28;20505;-63
2023/06/13 07:53:45;;;;;;;10.25;5.78;;;;;;;28.22;29.28;101286.78;5032729;28;20136;-63
2023/06/13 07:56:10;;;;;;;10.15;5.95;;;;;;;28.16;28.58;101288.00;5032424;28;20360;-63
2023/06/13 07:58:36;;;;;;;11.73;6.10;;;;;;;28.25;29.37;101288.47;5033040;28;20030;-63
2023/06/13 08:01:03;;;;;;;9.25;5.90;;;;;;;28.27;28.81;101283.84;5032664;28;20037;-63
2023/06/13 08:03:29;;;;;;;8.40;5.53;;;;;;;28.43;29.13;101293.75;5032658;28;20135;-63
2023/06/13 08:05:54;;;;;;;10.98;5.40;;;;;;;28.58;28.54;101294.75;5032851;28;20136;-63
2023/06/13 08:08:30;;;;;;;9.88;5.70;;;;;;;28.74;28.55;101297.47;5032827;28;20022;-63
2023/06/13 08:10:56;;;;;;;11.43;6.00;;;;;;;28.64;28.62;101294.38;5032486;28;20029;-63
2023/06/13 08:13:22;;;;;;;14.18;5.50;;;;;;;28.77;28.75;101291.81;5032722;28;20482;-63
2023/06/13 08:15:48;;;;;;;8.35;5.70;;;;;;;28.78;27.84;101292.69;5032467;28;20040;-63
2023/06/13 08:18:14;;;;;;;9.85;5.68;;;;;;;28.84;27.24;101297.78;5032833;28;20026;-63
2023/06/13 08:20:39;;;;;;;8.50;5.75;;;;;;;28.89;27.22;101290.22;5014901;28;20421;-63
2023/06/13 08:23:05;;;;;;;9.02;5.72;;;;;;;28.81;27.37;101287.94;5032619;28;20156;-63
2023/06/13 08:25:30;;;;;;;12.40;5.63;;;;;;;28.92;27.50;101293.66;5032772;28;20392;-63
2023/06/13 08:27:56;;;;;;;10.50;5.82;;;;;;;28.92;27.78;101299.09;5032339;28;20566;-63
2023/06/13 08:30:21;;;;;;;14.05;6.35;;;;;;;28.92;27.70;101282.78;5032447;28;20029;-63
2023/06/13 08:32:52;;;;;;;9.90;5.18;;;;;;;29.07;28.89;101293.72;5032344;28;20041;-64
2023/06/13 08:35:18;;;;;;;9.07;5.80;;;;;;;29.18;26.96;101277.66;5032857;28;20034;-63
2023/06/13 08:37:43;;;;;;;9.25;5.40;;;;;;;29.27;27.77;101282.53;5032308;28;20036;-63
2023/06/13 08:40:10;;;;;;;10.82;5.20;;;;;;;29.49;26.43;101281.22;5032177;28;20057;-63
2023/06/13 08:42:39;;;;;;;10.25;5.70;;;;;;;29.56;26.49;101283.50;5032230;28;20034;-63
2023/06/13 08:45:07;;;;;;;8.45;5.70;;;;;;;29.57;26.73;101270.75;5032073;28;20029;-63
2023/06/13 08:47:33;;;;;;;9.27;5.68;;;;;;;29.79;26.52;101265.72;5032304;28;20034;-63
2023/06/13 08:50:00;;;;;;;11.88;5.50;;;;;;;30.08;26.38;101268.44;5031995;28;20036;-63
2023/06/13 08:52:34;;;;;;;12.13;5.30;;;;;;;30.25;25.77;101261.94;5029884;28;20045;-64
2023/06/13 08:55:03;;;;;;;10.73;5.45;;;;;;;30.02;25.92;101263.38;5034307;28;20427;-63
2023/06/13 08:57:31;;;;;;;7.70;5.60;;;;;;;30.02;25.37;101266.09;5036082;28;20478;-63
2023/06/13 08:59:57;;;;;;;8.60;5.30;;;;;;;30.21;25.59;101263.97;5035794;28;20104;-61
2023/06/13 09:02:24;;;;;;;10.02;5.60;;;;;;;30.29;25.56;101255.31;5018031;28;20467;-62
2023/06/13 09:04:51;;;;;;;12.75;5.40;;;;;;;30.34;25.30;101261.31;5035939;28;20116;-62
2023/06/13 09:07:16;;;;;;;11.55;5.65;;;;;;;30.53;24.88;101255.53;5035844;28;20048;-63
2023/06/13 09:09:43;;;;;;;11.05;5.45;;;;;;;30.65;25.31;101260.16;5035570;28;20025;-62
2023/06/13 09:12:12;;;;;;;10.07;5.05;;;;;;;30.83;25.08;101258.06;5035568;28;20486;-62
2023/06/13 09:14:39;;;;;;;7.82;5.28;;;;;;;30.71;23.92;101264.31;5035563;28;20077;-62
2023/06/13 09:17:04;;;;;;;8.65;5.20;;;;;;;30.64;24.60;101256.56;5035826;28;20116;-62
2023/06/13 09:19:30;;;;;;;8.73;4.90;;;;;;;30.69;24.13;101276.22;5035675;28;20433;-62
2023/06/13 09:21:56;;;;;;;12.50;5.20;;;;;;;30.56;23.86;101256.19;5035479;28;20450;-62
2023/06/13 09:24:23;;;;;;;11.82;5.03;;;;;;;30.79;23.47;101260.16;5035634;28;20033;-62
2023/06/13 09:26:49;;;;;;;10.98;4.90;;;;;;;30.76;22.98;101257.63;5035478;28;20026;-63
2023/06/13 09:29:15;;;;;;;14.00;5.07;;;;;;;30.77;24.22;101259.38;5035402;28;20026;-63
2023/06/13 09:31:41;;;;;;;7.57;5.40;;;;;;;30.64;23.50;101266.59;5035746;28;20053;-62
2023/06/13 09:34:07;;;;;;;9.68;5.30;;;;;;;30.64;23.63;101262.03;5035464;28;20475;-62
2023/06/13 09:36:35;;;;;;;11.25;5.00;;;;;;;30.84;24.10;101251.66;5017656;28;20037;-62
2023/06/13 09:39:03;;;;;;;9.00;4.93;;;;;;;31.07;24.10;101250.09;5034936;28;20372;-62
2023/06/13 09:41:31;;;;;;;7.47;4.93;;;;;;;31.00;23.38;101251.47;5035430;28;20043;-62
2023/06/13 09:44:01;;;;;;;13.40;5.45;;;;;;;30.84;23.06;101258.00;5034924;28;20267;-63
2023/06/13 09:46:27;;;;;;;13.63;5.00;;;;;;;30.87;22.73;101257.75;5035022;28;20036;-62
2023/06/13 09:48:53;;;;;;;10.20;4.93;;;;;;;30.96;22.90;101253.53;5035083;28;20021;-63
2023/06/13 09:51:21;;;;;;;9.15;4.93;;;;;;;31.15;22.06;101250.44;5034765;28;20025;-63
2023/06/13 09:53:47;;;;;;;11.43;5.35;;;;;;;31.20;22.87;101253.72;5035137;28;20034;-63
2023/06/13 09:56:13;;;;;;;10.98;4.80;;;;;;;30.97;22.32;101247.13;5035364;28;20095;-63
2023/06/13 09:58:40;;;;;;;10.23;4.93;;;;;;;31.14;24.79;101249.56;5034917;28;20033;-63
2023/06/13 10:01:11;;;;;;;8.30;4.75;;;;;;;31.25;23.11;101248.78;5034873;28;20468;-63
2023/06/13 10:03:37;;;;;;;9.50;4.72;;;;;;;31.55;23.03;101247.66;5035016;28;20072;-63
2023/06/13 10:06:03;;;;;;;11.30;4.88;;;;;;;31.75;21.49;101244.38;5034426;28;20025;-63
2023/06/13 10:08:28;;;;;;;10.32;4.82;;;;;;;32.08;20.93;101241.09;5034726;28;20025;-63
2023/06/13 10:10:54;;;;;;;9.00;4.93;;;;;;;32.07;20.64;101239.31;5034615;28;20029;-64
2023/06/13 10:13:24;;;;;;;8.40;4.20;;;;;;;32.23;19.85;101238.19;5034818;28;20056;-61
2023/06/13 10:15:55;;;;;;;9.05;4.13;;;;;;;32.16;20.45;101229.56;5034675;28;20033;-62
2023/06/13 10:18:24;;;;;;;8.77;4.57;;;;;;;32.03;20.23;101248.72;5034715;28;20040;-62
2023/06/13 10:20:50;;;;;;;8.45;4.60;;;;;;;32.19;19.86;101236.69;5034670;28;20028;-62
2023/06/13 10:23:19;;;;;;;8.60;5.13;;;;;;;31.90;20.25;101235.09;5016756;28;20026;-62
2023/06/13 10:25:54;;;;;;;8.05;4.65;;;;;;;31.97;21.06;101230.06;5034390;28;20034;-62
2023/06/13 10:28:30;;;;;;;9.13;4.53;;;;;;;32.05;19.00;101244.03;5034396;28;20502;-62
2023/06/13 10:31:26;;;;;;;11.05;4.40;;;;;;;31.94;20.61;101240.34;5034356;28;20471;-62
2023/06/13 10:34:27;;;;;;;9.55;4.90;;;;;;;32.00;19.83;101238.03;5034249;28;20079;-62
2023/06/13 10:37:21;;;;;;;9.38;4.63;;;;;;;32.08;19.43;101230.16;4979050;28;20034;-62
2023/06/13 10:40:15;;;;;;;9.57;4.30;;;;;;;32.11;20.24;101237.25;5016475;28;20088;-62
2023/06/13 10:42:48;;;;;;;6.45;4.05;;;;;;;32.12;18.55;101226.22;5034388;28;20091;-62
2023/06/13 10:45:18;;;;;;;9.55;4.63;;;;;;;32.24;19.14;101242.69;5034034;28;20563;-62
2023/06/13 10:47:44;;;;;;;8.27;4.40;;;;;;;32.36;18.88;101228.97;5034183;28;20383;-62
2023/06/13 10:50:14;;;;;;;9.40;4.53;;;;;;;32.52;19.51;101231.47;5034299;28;20037;-62
2023/06/13 10:52:43;;;;;;;5.47;4.30;;;;;;;32.73;19.25;101217.16;5033608;28;20501;-63
2023/06/13 10:55:21;;;;;;;11.88;4.40;;;;;;;32.90;19.74;101224.94;5034035;28;20053;-63
2023/06/13 10:57:48;;;;;;;7.95;4.35;;;;;;;33.21;20.12;101233.53;5033911;28;20084;-62
2023/06/13 11:00:27;;;;;;;8.60;4.55;;;;;;;33.52;18.74;101226.50;5015950;28;20037;-62
2023/06/13 11:03:10;;;;;;;12.13;4.70;;;;;;;33.61;17.99;101236.72;5033717;28;20029;-62
2023/06/13 11:05:47;;;;;;;6.47;4.50;;;;;;;33.63;18.10;101230.16;5033682;28;20478;-62
2023/06/13 11:08:14;;;;;;;8.13;4.53;;;;;;;33.68;17.42;101218.81;5033661;28;20593;-63
2023/06/13 11:10:45;;;;;;;9.43;4.50;;;;;;;33.91;18.02;101211.44;5033358;28;20484;-63
2023/06/13 11:13:26;;;;;;;11.35;4.80;;;;;;;33.60;17.56;101222.16;5033715;28;20044;-62
2023/06/13 11:15:56;;;;;;;9.20;4.75;;;;;;;33.23;18.43;101215.94;5033669;28;20025;-62
2023/06/13 11:18:21;;;;;;;10.70;4.63;;;;;;;33.45;17.90;101212.44;5032827;28;20045;-62
2023/06/13 11:20:50;;;;;;;9.70;4.68;;;;;;;33.42;18.03;101207.16;5033481;28;20034;-62
2023/06/13 11:23:22;;;;;;;8.05;4.57;;;;;;;33.20;18.70;101215.34;5033213;28;20041;-62